Austinville, Iowa
Current Conditions -  °F | °C
As of 7:00 PM on Thursday 30 Oct 2014 (Local Time) from KIFA Reporting Station
Overcast Overcast  
Wind Chill: 51°   Ceiling: 5500
Heat Index: 51°   Visibility: 10mi
Dew Point: 38°   Wind: 7mph
Humidity: 60%   Direction: 350°N
Pressure: 30.12"   Gusts: NA
Location:  42.59°N, 92.96°W
Report Text: KIFA 310000Z AUTO 35006KT 10SM SCT050 OVC055 11/03 A3012 RMK AO2 T01070033
Loading
Personal Weather Stations






























Interactive Weather Map
Tropical Storm Tracking
New forecast layout! Learn more

10-Day Weather Forecast

Advertisements
Track Severe Weather on mobile